Time;durP1;ratioP1;P1;durP2;ratioP2;P2;SDS_P1;SDS_P2;PMS_P1;PMS_P2;Temp;Humidity;BMP_temperature;BMP_pressure;BME280_temperature;BME280_humidity;BME280_pressure;Samples;Min_cycle;Max_cycle;Signal;HPM_P1;HPM_P2
2022/12/04 00:01:47;;;;;;;;;32.50;29.75;;;;;-149.00;100.00;66333.84;5041649;28;46286;-79
2022/12/04 00:04:12;;;;;;;;;30.50;27.00;;;;;-149.00;100.00;66333.84;5041486;28;45437;-78
2022/12/04 00:06:37;;;;;;;;;31.75;28.25;;;;;-149.00;100.00;66333.84;5041607;28;45426;-77
2022/12/04 00:09:04;;;;;;;;;32.25;29.00;;;;;-149.00;100.00;66333.84;5041480;28;45614;-78
2022/12/04 00:11:31;;;;;;;;;32.00;30.00;;;;;-149.00;100.00;66333.84;5041504;28;45294;-78
2022/12/04 00:13:57;;;;;;;;;33.50;29.50;;;;;-149.00;100.00;66333.84;5023783;28;45268;-79
2022/12/04 00:16:24;;;;;;;;;28.25;26.75;;;;;-149.00;100.00;66333.84;5041375;28;45437;-78
2022/12/04 00:18:51;;;;;;;;;35.75;32.25;;;;;-149.00;100.00;66333.84;5041222;28;45558;-77
2022/12/04 00:21:18;;;;;;;;;31.50;27.75;;;;;-149.00;100.00;66333.84;5039873;28;46460;-79
2022/12/04 00:23:44;;;;;;;;;29.75;28.25;;;;;-149.00;100.00;66333.84;5041173;28;45341;-78
2022/12/04 00:26:12;;;;;;;;;32.50;30.00;;;;;-149.00;100.00;66333.84;5041617;28;45412;-78
2022/12/04 00:28:39;;;;;;;;;34.50;31.75;;;;;-149.00;100.00;66333.84;5041319;28;45521;-78
2022/12/04 00:31:10;;;;;;;;;42.00;36.75;;;;;-149.00;100.00;66333.84;5041016;28;45621;-78
2022/12/04 00:33:35;;;;;;;;;38.00;35.50;;;;;-149.00;100.00;66333.84;5041090;28;45443;-78
2022/12/04 00:36:05;;;;;;;;;31.25;28.75;;;;;-149.00;100.00;66333.84;5041520;28;45273;-78
2022/12/04 00:38:30;;;;;;;;;34.50;31.25;;;;;-149.00;100.00;66333.84;5040654;28;46460;-78
2022/12/04 00:40:56;;;;;;;;;31.25;27.25;;;;;-149.00;100.00;66333.84;5039768;28;47226;-78
2022/12/04 00:43:22;;;;;;;;;36.50;32.75;;;;;-149.00;100.00;66333.84;5041098;28;45298;-75
2022/12/04 00:45:48;;;;;;;;;28.75;27.75;;;;;-149.00;100.00;66333.84;5041419;28;45356;-77
2022/12/04 00:48:13;;;;;;;;;29.50;28.50;;;;;-149.00;100.00;66333.84;5041065;28;45378;-78
2022/12/04 00:50:39;;;;;;;;;36.00;33.50;;;;;-149.00;100.00;66333.84;5022736;28;47047;-79
2022/12/04 00:53:04;;;;;;;;;38.00;33.50;;;;;-149.00;100.00;66333.84;5037581;28;45324;-78
2022/12/04 00:55:30;;;;;;;;;33.25;29.25;;;;;-149.00;100.00;66333.84;5041149;28;45322;-79
2022/12/04 00:57:55;;;;;;;;;35.25;31.25;;;;;-149.00;100.00;66333.84;5039583;28;46152;-78
2022/12/04 01:00:20;;;;;;;;;31.50;29.75;;;;;-149.00;100.00;66333.84;5040542;28;45229;-78
2022/12/04 01:02:46;;;;;;;;;32.75;29.50;;;;;-149.00;100.00;66333.84;5023010;28;45807;-79
2022/12/04 01:05:12;;;;;;;;;38.00;33.75;;;;;-149.00;100.00;66333.84;5039440;28;45237;-78
2022/12/04 01:07:37;;;;;;;;;33.50;30.25;;;;;-149.00;100.00;66333.84;5040457;28;45264;-78
2022/12/04 01:10:07;;;;;;;;;35.00;32.50;;;;;-149.00;100.00;66333.84;5040666;28;45249;-78
2022/12/04 01:12:33;;;;;;;;;35.00;28.75;;;;;-149.00;100.00;66333.84;5040561;28;45345;-79
2022/12/04 01:14:59;;;;;;;;;33.25;31.75;;;;;-149.00;100.00;66333.84;5022674;28;45405;-78
2022/12/04 01:17:25;;;;;;;;;36.25;35.75;;;;;-149.00;100.00;66333.84;5039334;28;47191;-78
2022/12/04 01:19:50;;;;;;;;;35.75;32.00;;;;;-149.00;100.00;66333.84;5040187;28;45368;-79
2022/12/04 01:22:15;;;;;;;;;35.75;31.50;;;;;-149.00;100.00;66333.84;5022262;28;45348;-78
2022/12/04 01:24:41;;;;;;;;;34.00;31.50;;;;;-149.00;100.00;66333.84;5040668;28;45439;-78
2022/12/04 01:27:06;;;;;;;;;37.25;34.25;;;;;-149.00;100.00;66333.84;5040509;28;45164;-78
2022/12/04 01:29:32;;;;;;;;;36.25;32.25;;;;;-149.00;100.00;66333.84;5040382;28;46631;-78
2022/12/04 01:31:57;;;;;;;;;35.75;34.25;;;;;-149.00;100.00;66333.84;5040303;28;45224;-78
2022/12/04 01:34:24;;;;;;;;;37.75;32.25;;;;;-149.00;100.00;66333.84;5040559;28;45443;-78
2022/12/04 01:36:50;;;;;;;;;35.75;33.75;;;;;-149.00;100.00;66333.84;5040094;28;45266;-78
2022/12/04 01:39:15;;;;;;;;;34.00;33.00;;;;;-149.00;100.00;66333.84;5039942;28;45489;-78
2022/12/04 01:41:41;;;;;;;;;29.00;27.75;;;;;-149.00;100.00;66333.84;5039789;28;45461;-78
2022/12/04 01:44:07;;;;;;;;;36.50;34.00;;;;;-149.00;100.00;66333.84;5039980;28;45485;-78
2022/12/04 01:46:32;;;;;;;;;37.50;32.75;;;;;-149.00;100.00;66333.84;5040033;28;45451;-77
2022/12/04 01:48:58;;;;;;;;;40.50;35.25;;;;;-149.00;100.00;66333.84;5038672;28;48442;-77
2022/12/04 01:51:28;;;;;;;;;33.00;29.75;;;;;-149.00;100.00;66333.84;5038512;28;45324;-77
2022/12/04 01:54:00;;;;;;;;;41.50;33.25;;;;;-149.00;100.00;66333.84;5040026;28;45153;-77
2022/12/04 01:56:35;;;;;;;;;35.75;30.50;;;;;-149.00;100.00;66333.84;5039882;28;45245;-79
2022/12/04 01:59:03;;;;;;;;;18.25;15.00;;;;;-149.00;100.00;66333.84;5039888;28;45404;-78
2022/12/04 02:01:34;;;;;;;;;32.50;28.00;;;;;-149.00;100.00;66333.84;5039783;28;45292;-78
2022/12/04 02:04:01;;;;;;;;;35.25;33.00;;;;;-149.00;100.00;66333.84;5039823;28;45372;-78
2022/12/04 02:06:26;;;;;;;;;38.75;31.75;;;;;-149.00;100.00;66333.84;5039605;28;45449;-78
2022/12/04 02:08:52;;;;;;;;;29.50;29.25;;;;;-149.00;100.00;66333.84;5034816;28;47080;-78
2022/12/04 02:11:42;;;;;;;;;36.00;33.75;;;;;-149.00;100.00;66333.84;5038364;28;45311;-77
2022/12/04 02:14:19;;;;;;;;;35.50;31.25;;;;;-149.00;100.00;66333.84;5039965;28;45332;-77
2022/12/04 02:17:11;;;;;;;;;33.00;32.50;;;;;-149.00;100.00;66333.84;5021395;28;46978;-78
2022/12/04 02:19:58;;;;;;;;;40.25;34.75;;;;;-149.00;100.00;66333.84;5039164;28;45416;-78
2022/12/04 02:22:36;;;;;;;;;36.25;33.00;;;;;-149.00;100.00;66333.84;5039173;28;45356;-78
2022/12/04 02:25:25;;;;;;;;;33.00;27.00;;;;;-149.00;100.00;66333.84;5039514;28;45365;-78
2022/12/04 02:28:02;;;;;;;;;35.25;32.75;;;;;-149.00;100.00;66333.84;5039410;28;45315;-79
2022/12/04 02:30:29;;;;;;;;;36.50;32.50;;;;;-149.00;100.00;66333.84;5037987;28;47213;-78
2022/12/04 02:32:57;;;;;;;;;30.50;27.75;;;;;-149.00;100.00;66333.84;5039391;28;45300;-78
2022/12/04 02:35:40;;;;;;;;;30.25;30.00;;;;;-149.00;100.00;66333.84;5039434;28;45253;-78
2022/12/04 02:38:16;;;;;;;;;35.50;31.00;;;;;-149.00;100.00;66333.84;5038836;28;45365;-78
2022/12/04 02:41:00;;;;;;;;;42.00;35.50;;;;;-149.00;100.00;66333.84;5039269;28;46369;-78
2022/12/04 02:43:35;;;;;;;;;32.50;28.25;;;;;-149.00;100.00;66333.84;5039162;28;45374;-79
2022/12/04 02:46:07;;;;;;;;;36.50;31.75;;;;;-149.00;100.00;66333.84;5039323;28;45344;-78
2022/12/04 02:48:38;;;;;;;;;35.00;30.50;;;;;-149.00;100.00;66333.84;5039001;28;45364;-78
2022/12/04 02:51:06;;;;;;;;;34.75;33.00;;;;;-149.00;100.00;66333.84;5021061;28;47200;-78
2022/12/04 02:53:42;;;;;;;;;29.50;28.25;;;;;-149.00;100.00;66333.84;5037289;28;45627;-78
2022/12/04 02:56:16;;;;;;;;;34.25;32.75;;;;;-149.00;100.00;66333.84;5039150;28;45252;-78
2022/12/04 02:58:52;;;;;;;;;33.25;31.25;;;;;-149.00;100.00;66333.84;5038971;28;45364;-78
2022/12/04 03:01:26;;;;;;;;;37.25;34.00;;;;;-149.00;100.00;66333.84;5039021;28;46405;-78
2022/12/04 03:04:17;;;;;;;;;40.50;33.25;;;;;-149.00;100.00;66333.84;5038752;28;45337;-78
2022/12/04 03:06:46;;;;;;;;;37.50;33.75;;;;;-149.00;100.00;66333.84;5027304;28;45288;-79
2022/12/04 03:09:23;;;;;;;;;33.50;27.00;;;;;-149.00;100.00;66333.84;5034193;28;47174;-79
2022/12/04 03:11:55;;;;;;;;;32.75;27.75;;;;;-149.00;100.00;66333.84;5037539;28;47530;-78
2022/12/04 03:14:34;;;;;;;;;38.50;30.25;;;;;-149.00;100.00;66333.84;5038646;28;45324;-78
2022/12/04 03:17:16;;;;;;;;;41.25;35.00;;;;;-149.00;100.00;66333.84;5037614;28;45342;-78
2022/12/04 03:19:48;;;;;;;;;32.75;29.00;;;;;-149.00;100.00;66333.84;5037065;28;47165;-78
2022/12/04 03:22:18;;;;;;;;;38.00;33.50;;;;;-149.00;100.00;66333.84;5038438;28;45470;-77
2022/12/04 03:24:55;;;;;;;;;29.75;28.25;;;;;-149.00;100.00;66333.84;5038655;28;45360;-78
2022/12/04 03:27:32;;;;;;;;;32.75;30.25;;;;;-149.00;100.00;66333.84;5038889;28;45310;-78
2022/12/04 03:30:08;;;;;;;;;35.50;31.75;;;;;-149.00;100.00;66333.84;5038592;28;45495;-78
2022/12/04 03:32:55;;;;;;;;;36.25;34.75;;;;;-149.00;100.00;66333.84;5038523;28;45352;-78
2022/12/04 03:35:28;;;;;;;;;31.75;29.50;;;;;-149.00;100.00;66333.84;5038381;28;45544;-78
2022/12/04 03:38:06;;;;;;;;;44.25;33.25;;;;;-149.00;100.00;66333.84;5038425;28;45339;-78
2022/12/04 03:40:31;;;;;;;;;32.50;32.25;;;;;-149.00;100.00;66333.84;5038453;28;45400;-78
2022/12/04 03:43:06;;;;;;;;;38.00;33.00;;;;;-149.00;100.00;66333.84;5038443;28;45430;-78
2022/12/04 03:45:40;;;;;;;;;31.25;27.50;;;;;-149.00;100.00;66333.84;5037109;28;45281;-78
2022/12/04 03:48:16;;;;;;;;;33.25;31.00;;;;;-149.00;100.00;66333.84;5038570;28;45324;-78
2022/12/04 03:50:50;;;;;;;;;36.25;33.50;;;;;-149.00;100.00;66333.84;5038422;28;45516;-78
2022/12/04 03:53:38;;;;;;;;;34.50;31.75;;;;;-149.00;100.00;66333.84;5037608;28;45396;-78
2022/12/04 03:56:19;;;;;;;;;36.50;33.50;;;;;-149.00;100.00;66333.84;5025184;28;45363;-79
2022/12/04 03:58:56;;;;;;;;;35.00;29.00;;;;;-149.00;100.00;66333.84;5036946;28;45365;-79
2022/12/04 04:01:28;;;;;;;;;37.75;29.00;;;;;-149.00;100.00;66333.84;5038266;28;45515;-77
2022/12/04 04:03:57;;;;;;;;;42.50;35.00;;;;;-149.00;100.00;66333.84;5038003;28;45412;-78
2022/12/04 04:06:33;;;;;;;;;31.50;27.25;;;;;-149.00;100.00;66333.84;5039875;28;45853;-78
2022/12/04 04:09:03;;;;;;;;;41.75;35.50;;;;;-149.00;100.00;66333.84;5041442;28;45281;-77
2022/12/04 04:11:42;;;;;;;;;33.00;28.25;;;;;-149.00;100.00;66333.84;5023376;28;47495;-78
2022/12/04 04:25:35;;;;;;;;;38.25;33.00;;;;;-149.00;100.00;66333.84;5041231;28;45870;-77
2022/12/04 04:28:00;;;;;;;;;36.75;34.50;;;;;-149.00;100.00;66333.84;5039913;28;45237;-77
2022/12/04 04:30:28;;;;;;;;;38.00;33.50;;;;;-149.00;100.00;66333.84;5041081;28;45858;-77
2022/12/04 04:32:54;;;;;;;;;41.00;37.00;;;;;-149.00;100.00;66333.84;5040031;28;46421;-79
2022/12/04 04:35:39;;;;;;;;;40.25;34.75;;;;;-149.00;100.00;66333.84;5023138;28;47442;-77
2022/12/04 04:38:26;;;;;;;;;35.75;32.75;;;;;-149.00;100.00;66333.84;5040831;28;45444;-78
2022/12/04 04:41:19;;;;;;;;;35.00;30.75;;;;;-149.00;100.00;66333.84;5041290;28;45299;-78
2022/12/04 04:44:10;;;;;;;;;34.25;26.25;;;;;-149.00;100.00;66333.84;5039542;28;47274;-77
2022/12/04 04:46:40;;;;;;;;;39.75;32.75;;;;;-149.00;100.00;66333.84;5022697;28;47005;-78
2022/12/04 04:49:09;;;;;;;;;30.75;30.00;;;;;-149.00;100.00;66333.84;5041181;28;45294;-78
2022/12/04 04:51:35;;;;;;;;;34.75;32.75;;;;;-149.00;100.00;66333.84;5040789;28;45428;-77
2022/12/04 04:54:05;;;;;;;;;35.00;32.75;;;;;-149.00;100.00;66333.84;5040651;28;45221;-78
2022/12/04 04:56:31;;;;;;;;;37.25;34.25;;;;;-149.00;100.00;66333.84;5022829;28;48726;-78
2022/12/04 04:58:56;;;;;;;;;32.25;27.25;;;;;-149.00;100.00;66333.84;5022791;28;46744;-78
2022/12/04 05:01:25;;;;;;;;;41.50;35.75;;;;;-149.00;100.00;66333.84;5040987;28;45451;-78
2022/12/04 05:03:51;;;;;;;;;33.75;32.25;;;;;-149.00;100.00;66333.84;5022737;28;47273;-78
2022/12/04 05:06:17;;;;;;;;;30.25;25.25;;;;;-149.00;100.00;66333.84;5040557;28;45567;-78
2022/12/04 05:08:43;;;;;;;;;33.75;25.50;;;;;-149.00;100.00;66333.84;5040466;28;45391;-78
2022/12/04 05:11:12;;;;;;;;;36.00;33.50;;;;;-149.00;100.00;66333.84;5040779;28;45324;-78
2022/12/04 05:13:37;;;;;;;;;42.00;34.75;;;;;-149.00;100.00;66333.84;5039455;28;47707;-78
2022/12/04 05:16:05;;;;;;;;;33.50;30.25;;;;;-149.00;100.00;66333.84;5039048;28;47349;-77
2022/12/04 05:18:32;;;;;;;;;41.75;34.50;;;;;-149.00;100.00;66333.84;5039539;28;45454;-78
2022/12/04 05:20:58;;;;;;;;;37.50;33.00;;;;;-149.00;100.00;66333.84;5040571;28;45316;-78
2022/12/04 05:23:24;;;;;;;;;35.75;32.50;;;;;-149.00;100.00;66333.84;5040056;28;45446;-79
2022/12/04 05:25:50;;;;;;;;;40.25;34.25;;;;;-149.00;100.00;66333.84;5039023;28;47990;-78
2022/12/04 05:28:16;;;;;;;;;34.50;29.75;;;;;-149.00;100.00;66333.84;5040107;28;45314;-78
2022/12/04 05:30:41;;;;;;;;;39.25;37.00;;;;;-149.00;100.00;66333.84;5040518;28;45297;-78
2022/12/04 05:33:09;;;;;;;;;37.75;35.00;;;;;-149.00;100.00;66333.84;5040253;28;45388;-78
2022/12/04 05:35:34;;;;;;;;;32.75;25.25;;;;;-149.00;100.00;66333.84;5040391;28;46418;-78
2022/12/04 05:37:59;;;;;;;;;30.50;26.75;;;;;-149.00;100.00;66333.84;5021997;28;45283;-78
2022/12/04 05:40:25;;;;;;;;;36.50;31.75;;;;;-149.00;100.00;66333.84;5022434;28;45476;-78
2022/12/04 05:42:50;;;;;;;;;42.25;37.25;;;;;-149.00;100.00;66333.84;5040315;28;45387;-78
2022/12/04 05:45:15;;;;;;;;;39.00;33.25;;;;;-149.00;100.00;66333.84;5021981;28;47419;-78
2022/12/04 05:47:42;;;;;;;;;33.00;29.25;;;;;-149.00;100.00;66333.84;5040357;28;45321;-78
2022/12/04 05:50:11;;;;;;;;;35.25;31.50;;;;;-149.00;100.00;66333.84;5040147;28;45452;-77
2022/12/04 05:52:36;;;;;;;;;39.50;34.50;;;;;-149.00;100.00;66333.84;5039698;28;45303;-79
2022/12/04 05:55:01;;;;;;;;;33.50;30.25;;;;;-149.00;100.00;66333.84;5040013;28;46245;-78
2022/12/04 05:57:27;;;;;;;;;36.25;29.75;;;;;-149.00;100.00;66333.84;5039967;28;45322;-78
2022/12/04 05:59:53;;;;;;;;;39.25;33.25;;;;;-149.00;100.00;66333.84;5040139;28;45274;-78
2022/12/04 06:02:18;;;;;;;;;35.75;34.75;;;;;-149.00;100.00;66333.84;5039627;28;45462;-78
2022/12/04 06:04:43;;;;;;;;;41.25;36.00;;;;;-149.00;100.00;66333.84;5039870;28;45314;-77
2022/12/04 06:07:10;;;;;;;;;36.00;34.75;;;;;-149.00;100.00;66333.84;5039384;28;45348;-78
2022/12/04 06:09:35;;;;;;;;;42.00;35.75;;;;;-149.00;100.00;66333.84;5021937;28;45262;-79
2022/12/04 06:12:00;;;;;;;;;33.75;30.50;;;;;-149.00;100.00;66333.84;5039541;28;45332;-78
2022/12/04 06:14:26;;;;;;;;;41.25;35.50;;;;;-149.00;100.00;66333.84;5039302;28;48532;-79
2022/12/04 06:16:51;;;;;;;;;36.75;34.25;;;;;-149.00;100.00;66333.84;5039642;28;45491;-78
2022/12/04 06:19:19;;;;;;;;;42.25;34.75;;;;;-149.00;100.00;66333.84;5038240;28;45464;-78
2022/12/04 06:21:49;;;;;;;;;40.25;30.75;;;;;-149.00;100.00;66333.84;5039145;28;45293;-78
2022/12/04 06:24:18;;;;;;;;;39.25;35.75;;;;;-149.00;100.00;66333.84;5037880;28;47400;-78
2022/12/04 06:26:43;;;;;;;;;41.00;37.00;;;;;-149.00;100.00;66333.84;5039093;28;45321;-78
2022/12/04 06:29:11;;;;;;;;;42.75;38.50;;;;;-149.00;100.00;66333.84;5039263;28;45355;-78
2022/12/04 06:31:37;;;;;;;;;43.50;37.50;;;;;-149.00;100.00;66333.84;5039267;28;45546;-79
2022/12/04 06:34:03;;;;;;;;;41.75;34.50;;;;;-149.00;100.00;66333.84;5037910;28;48435;-79
2022/12/04 06:36:29;;;;;;;;;44.75;34.00;;;;;-149.00;100.00;66333.84;5038936;28;45318;-78
2022/12/04 06:38:55;;;;;;;;;34.00;32.75;;;;;-149.00;100.00;66333.84;5037893;28;45274;-78
2022/12/04 06:41:23;;;;;;;;;42.75;35.25;;;;;-149.00;100.00;66333.84;5039376;28;45383;-79
2022/12/04 06:43:50;;;;;;;;;40.50;37.75;;;;;-149.00;100.00;66333.84;5037800;28;47406;-78
2022/12/04 06:46:19;;;;;;;;;44.75;39.00;;;;;-149.00;100.00;66333.84;5039209;28;45265;-78
2022/12/04 06:48:44;;;;;;;;;47.25;39.50;;;;;-149.00;100.00;66333.84;5021292;28;45432;-78
2022/12/04 06:51:25;;;;;;;;;40.25;35.50;;;;;-149.00;100.00;66333.84;5039001;28;45332;-78
2022/12/04 06:53:51;;;;;;;;;42.00;36.75;;;;;-149.00;100.00;66333.84;5037818;28;48466;-78
2022/12/04 06:56:21;;;;;;;;;40.50;35.00;;;;;-149.00;100.00;66333.84;5039136;28;45427;-77
2022/12/04 06:58:48;;;;;;;;;38.25;35.75;;;;;-149.00;100.00;66333.84;5037713;28;45373;-78
2022/12/04 07:01:17;;;;;;;;;46.00;35.75;;;;;-149.00;100.00;66333.84;5039022;28;45729;-78
2022/12/04 07:03:43;;;;;;;;;41.25;37.75;;;;;-149.00;100.00;66333.84;5038860;28;45424;-78
2022/12/04 07:06:21;;;;;;;;;44.00;38.00;;;;;-149.00;100.00;66333.84;5020971;28;46176;-78
2022/12/04 07:08:50;;;;;;;;;46.25;38.50;;;;;-149.00;100.00;66333.84;5020953;28;45413;-78
2022/12/04 07:11:16;;;;;;;;;45.00;38.50;;;;;-149.00;100.00;66333.84;5020855;28;47017;-78
2022/12/04 07:13:42;;;;;;;;;45.25;37.00;;;;;-149.00;100.00;66333.84;5038898;28;45328;-78
2022/12/04 07:16:11;;;;;;;;;42.75;35.75;;;;;-149.00;100.00;66333.84;5038626;28;45336;-78
2022/12/04 07:18:36;;;;;;;;;46.50;39.75;;;;;-149.00;100.00;66333.84;5038915;28;45423;-80
2022/12/04 07:21:07;;;;;;;;;53.75;40.25;;;;;-149.00;100.00;66333.84;5037388;28;45466;-79
2022/12/04 07:23:32;;;;;;;;;42.00;36.50;;;;;-149.00;100.00;66333.84;5038618;28;45319;-79
2022/12/04 07:26:02;;;;;;;;;43.75;37.75;;;;;-149.00;100.00;66333.84;5037858;28;45471;-79
2022/12/04 07:28:27;;;;;;;;;48.50;38.25;;;;;-149.00;100.00;66333.84;5038250;28;45328;-78
2022/12/04 07:30:52;;;;;;;;;53.75;40.25;;;;;-149.00;100.00;66333.84;5038310;28;46318;-79
2022/12/04 07:33:18;;;;;;;;;53.50;37.50;;;;;-149.00;100.00;66333.84;5038622;28;46154;-79
2022/12/04 07:35:43;;;;;;;;;45.00;39.00;;;;;-149.00;100.00;66333.84;5038630;28;45343;-79
2022/12/04 07:38:08;;;;;;;;;45.00;38.75;;;;;-149.00;100.00;66333.84;5038540;28;45348;-79
2022/12/04 07:40:36;;;;;;;;;48.50;38.25;;;;;-149.00;100.00;66333.84;5037943;28;46366;-79
2022/12/04 07:43:01;;;;;;;;;53.00;41.25;;;;;-149.00;100.00;66333.84;5041949;28;46593;-79
2022/12/04 07:45:26;;;;;;;;;45.00;38.25;;;;;-149.00;100.00;66333.84;5042036;28;45340;-77
2022/12/04 07:47:52;;;;;;;;;40.75;38.00;;;;;-149.00;100.00;66333.84;5024239;28;45392;-79
2022/12/04 07:50:17;;;;;;;;;46.75;40.00;;;;;-149.00;100.00;66333.84;5042043;28;45498;-78
2022/12/04 07:52:42;;;;;;;;;52.75;42.00;;;;;-149.00;100.00;66333.84;5038722;28;48109;-79
2022/12/04 07:55:08;;;;;;;;;53.75;43.50;;;;;-149.00;100.00;66333.84;5041961;28;45303;-79
2022/12/04 07:57:33;;;;;;;;;41.50;36.00;;;;;-149.00;100.00;66333.84;5041957;28;45324;-79
2022/12/04 07:59:59;;;;;;;;;49.50;41.00;;;;;-149.00;100.00;66333.84;5041764;28;45570;-80
2022/12/04 08:02:25;;;;;;;;;50.50;41.25;;;;;-149.00;100.00;66333.84;5041745;28;45369;-79
2022/12/04 08:04:50;;;;;;;;;56.00;44.00;;;;;-149.00;100.00;66333.84;5037099;28;45351;-78
2022/12/04 08:07:16;;;;;;;;;52.50;43.75;;;;;-149.00;100.00;66333.84;5032279;28;45254;-79
2022/12/04 08:09:42;;;;;;;;;50.75;40.25;;;;;-149.00;100.00;66333.84;5041214;28;45422;-79
2022/12/04 08:12:07;;;;;;;;;43.25;37.75;;;;;-149.00;100.00;66333.84;5041667;28;46068;-79
2022/12/04 08:14:32;;;;;;;;;50.00;42.00;;;;;-149.00;100.00;66333.84;5041494;28;45344;-79
2022/12/04 08:16:58;;;;;;;;;57.00;42.75;;;;;-149.00;100.00;66333.84;5041549;28;45333;-78
2022/12/04 08:19:23;;;;;;;;;54.00;42.75;;;;;-149.00;100.00;66333.84;5041395;28;45459;-79
2022/12/04 08:21:49;;;;;;;;;44.25;38.25;;;;;-149.00;100.00;66333.84;5040045;28;45640;-79
2022/12/04 08:24:15;;;;;;;;;53.50;44.00;;;;;-149.00;100.00;66333.84;5022871;28;45365;-79
2022/12/04 08:26:40;;;;;;;;;49.00;41.25;;;;;-149.00;100.00;66333.84;5023199;28;45399;-79
2022/12/04 08:29:06;;;;;;;;;58.50;44.00;;;;;-149.00;100.00;66333.84;5040722;28;45552;-79
2022/12/04 08:31:33;;;;;;;;;46.75;41.00;;;;;-149.00;100.00;66333.84;5031612;28;47049;-79
2022/12/04 08:34:01;;;;;;;;;51.25;41.00;;;;;-149.00;100.00;66333.84;5012296;28;45282;-80
2022/12/04 08:36:27;;;;;;;;;54.25;43.50;;;;;-149.00;100.00;66333.84;5039712;28;45467;-79
2022/12/04 08:38:54;;;;;;;;;52.00;42.75;;;;;-149.00;100.00;66333.84;5039623;28;46409;-80
2022/12/04 08:41:22;;;;;;;;;45.00;39.25;;;;;-149.00;100.00;66333.84;5041049;28;46082;-79
2022/12/04 08:43:48;;;;;;;;;51.75;42.25;;;;;-149.00;100.00;66333.84;5041066;28;45346;-80
2022/12/04 08:46:15;;;;;;;;;51.25;42.50;;;;;-149.00;100.00;66333.84;5039952;28;45463;-78
2022/12/04 08:48:43;;;;;;;;;42.50;38.25;;;;;-149.00;100.00;66333.84;5041791;28;45704;-78
2022/12/04 08:51:23;;;;;;;;;48.00;41.00;;;;;-149.00;100.00;66333.84;5039784;28;45703;-79
2022/12/04 08:53:59;;;;;;;;;47.25;38.75;;;;;-149.00;100.00;66333.84;5040491;28;45502;-79
2022/12/04 08:56:26;;;;;;;;;45.50;39.00;;;;;-149.00;100.00;66333.84;5041780;28;45228;-78
2022/12/04 08:58:52;;;;;;;;;46.25;38.50;;;;;-149.00;100.00;66333.84;5022813;28;46033;-78
2022/12/04 09:01:17;;;;;;;;;54.50;43.50;;;;;-149.00;100.00;66333.84;5039754;28;46079;-78
2022/12/04 09:03:43;;;;;;;;;42.75;38.00;;;;;-149.00;100.00;66333.84;5042236;28;45370;-78
2022/12/04 09:06:10;;;;;;;;;50.00;41.25;;;;;-149.00;100.00;66333.84;5041658;28;45320;-78
2022/12/04 09:08:36;;;;;;;;;48.75;40.75;;;;;-149.00;100.00;66333.84;5041108;28;46781;-79
2022/12/04 09:11:04;;;;;;;;;49.00;37.75;;;;;-149.00;100.00;66333.84;5023645;28;47011;-78
2022/12/04 09:13:30;;;;;;;;;50.50;41.25;;;;;-149.00;100.00;66333.84;5042241;28;45285;-78
2022/12/04 09:15:55;;;;;;;;;49.50;41.00;;;;;-149.00;100.00;66333.84;5039959;28;45300;-78
2022/12/04 09:18:20;;;;;;;;;52.75;43.75;;;;;-149.00;100.00;66333.84;5023264;28;46346;-78
2022/12/04 09:20:54;;;;;;;;;49.50;41.25;;;;;-149.00;100.00;66333.84;5038331;28;48025;-78
2022/12/04 09:23:20;;;;;;;;;47.75;40.75;;;;;-149.00;100.00;66333.84;5040659;28;45229;-79
2022/12/04 09:25:45;;;;;;;;;52.25;41.75;;;;;-149.00;100.00;66333.84;5043512;28;45439;-80
2022/12/04 09:28:10;;;;;;;;;50.50;42.25;;;;;-149.00;100.00;66333.84;5025020;28;54378;-79
2022/12/04 09:30:35;;;;;;;;;54.00;44.25;;;;;-149.00;100.00;66333.84;5028803;28;47554;-80
2022/12/04 09:33:01;;;;;;;;;54.25;45.75;;;;;-149.00;100.00;66333.84;5046646;28;48272;-79
2022/12/04 09:35:26;;;;;;;;;53.00;41.75;;;;;-149.00;100.00;66333.84;5045948;28;45419;-79
2022/12/04 09:37:51;;;;;;;;;57.00;44.25;;;;;-149.00;100.00;66333.84;5050061;28;45340;-79
2022/12/04 09:40:44;;;;;;;;;46.75;40.00;;;;;-149.00;100.00;66333.84;5032698;28;48522;-79
2022/12/04 09:43:25;;;;;;;;;45.25;38.50;;;;;-149.00;100.00;66333.84;5026416;28;45915;-79
2022/12/04 09:45:54;;;;;;;;;55.25;41.75;;;;;-149.00;100.00;66333.84;5040097;28;45398;-79
2022/12/04 09:48:26;;;;;;;;;49.50;40.25;;;;;-149.00;100.00;66333.84;5021385;28;46661;-79
2022/12/04 09:50:52;;;;;;;;;48.75;41.00;;;;;-149.00;100.00;66333.84;5041649;28;45403;-79
2022/12/04 09:53:28;;;;;;;;;49.25;41.25;;;;;-149.00;100.00;66333.84;5044963;28;45400;-79
2022/12/04 09:56:00;;;;;;;;;47.75;40.25;;;;;-149.00;100.00;66333.84;5048160;28;45320;-79
2022/12/04 09:58:39;;;;;;;;;53.00;43.00;;;;;-149.00;100.00;66333.84;5049151;28;45376;-79
2022/12/04 10:01:04;;;;;;;;;51.25;41.00;;;;;-149.00;100.00;66333.84;5045446;28;45983;-79
2022/12/04 10:03:30;;;;;;;;;51.00;39.75;;;;;-149.00;100.00;66333.84;5044191;28;45358;-79
2022/12/04 10:06:13;;;;;;;;;54.00;44.00;;;;;-149.00;100.00;66333.84;5041995;28;45293;-78
2022/12/04 10:08:45;;;;;;;;;55.00;43.50;;;;;-149.00;100.00;66333.84;5042269;28;45304;-79
2022/12/04 10:11:25;;;;;;;;;53.25;44.25;;;;;-149.00;100.00;66333.84;5024370;28;47591;-79
2022/12/04 10:14:12;;;;;;;;;49.50;41.50;;;;;-149.00;100.00;66333.84;5043287;28;45300;-79
2022/12/04 10:16:47;;;;;;;;;51.25;42.00;;;;;-149.00;100.00;66333.84;5044306;28;45367;-79
2022/12/04 10:19:34;;;;;;;;;56.00;41.50;;;;;-149.00;100.00;66333.84;5043078;28;45443;-78
2022/12/04 10:22:19;;;;;;;;;54.00;43.00;;;;;-149.00;100.00;66333.84;5034444;28;45857;-80
2022/12/04 10:24:54;;;;;;;;;52.75;40.75;;;;;-149.00;100.00;66333.84;5035015;28;45364;-80
2022/12/04 10:27:24;;;;;;;;;54.25;45.00;;;;;-149.00;100.00;66333.84;5039323;28;45348;-79
2022/12/04 10:29:55;;;;;;;;;56.25;46.50;;;;;-149.00;100.00;66333.84;5035679;28;45479;-81
2022/12/04 10:32:25;;;;;;;;;58.75;46.75;;;;;-149.00;100.00;66333.84;5017258;28;47561;-81
2022/12/04 10:34:54;;;;;;;;;61.25;50.00;;;;;-149.00;100.00;66333.84;5020510;28;45499;-79
2022/12/04 10:37:22;;;;;;;;;59.50;47.25;;;;;-149.00;100.00;66333.84;5039195;28;45324;-80
2022/12/04 10:39:56;;;;;;;;;60.50;48.00;;;;;-149.00;100.00;66333.84;5037779;28;46281;-80
2022/12/04 10:42:45;;;;;;;;;58.00;47.00;;;;;-149.00;100.00;66333.84;5039229;28;45349;-80
2022/12/04 10:45:12;;;;;;;;;62.50;47.75;;;;;-149.00;100.00;66333.84;5037828;28;45451;-79
2022/12/04 10:47:43;;;;;;;;;58.25;46.75;;;;;-149.00;100.00;66333.84;5036652;28;46995;-80
2022/12/04 10:50:16;;;;;;;;;54.75;42.50;;;;;-149.00;100.00;66333.84;5021102;28;46538;-79
2022/12/04 10:52:41;;;;;;;;;50.75;39.50;;;;;-149.00;100.00;66333.84;5020732;28;48420;-79
2022/12/04 10:55:07;;;;;;;;;61.25;48.50;;;;;-149.00;100.00;66333.84;5037012;28;46388;-79
2022/12/04 10:57:39;;;;;;;;;51.75;42.25;;;;;-149.00;100.00;66333.84;5021221;28;45272;-79
2022/12/04 11:00:24;;;;;;;;;52.00;41.00;;;;;-149.00;100.00;66333.84;5020993;28;46767;-81
2022/12/04 11:02:52;;;;;;;;;57.25;44.75;;;;;-149.00;100.00;66333.84;5025449;28;47148;-80
2022/12/04 11:05:24;;;;;;;;;59.50;48.25;;;;;-149.00;100.00;66333.84;5021019;28;45273;-79
2022/12/04 11:07:50;;;;;;;;;57.25;47.75;;;;;-149.00;100.00;66333.84;5038774;28;45513;-79
2022/12/04 11:10:39;;;;;;;;;57.00;47.50;;;;;-149.00;100.00;66333.84;5034246;28;45538;-79
2022/12/04 11:13:30;;;;;;;;;58.50;46.75;;;;;-149.00;100.00;66333.84;5038093;28;45411;-79
2022/12/04 11:15:57;;;;;;;;;55.50;44.00;;;;;-149.00;100.00;66333.84;5021222;28;45435;-79
2022/12/04 11:18:31;;;;;;;;;62.00;47.50;;;;;-149.00;100.00;66333.84;5024398;28;45384;-79